createdAt,value
2023-06-08T00:02:12.250Z,16.00
2023-06-08T00:04:43.269Z,16.00
2023-06-08T00:07:15.550Z,16.00
2023-06-08T00:09:45.899Z,15.90
2023-06-08T00:12:16.343Z,15.90
2023-06-08T00:14:49.184Z,15.90
2023-06-08T00:17:19.269Z,15.70
2023-06-08T00:19:49.396Z,15.80
2023-06-08T00:22:19.759Z,15.80
2023-06-08T00:24:49.900Z,15.80
2023-06-08T00:27:20.025Z,15.70
2023-06-08T00:29:52.991Z,15.70
2023-06-08T00:32:23.878Z,15.70
2023-06-08T00:34:53.933Z,15.60
2023-06-08T00:37:23.945Z,15.60
2023-06-08T00:39:54.035Z,15.60
2023-06-08T00:42:24.103Z,15.60
2023-06-08T00:44:56.950Z,15.60
2023-06-08T00:47:27.419Z,15.60
2023-06-08T00:49:57.930Z,15.60
2023-06-08T00:52:28.818Z,15.60
2023-06-08T00:55:02.143Z,15.60
2023-06-08T00:57:34.395Z,15.80
2023-06-08T01:00:12.748Z,15.70
2023-06-08T01:02:43.249Z,15.70
2023-06-08T01:05:14.323Z,15.70
2023-06-08T01:07:54.483Z,15.70
2023-06-08T01:10:33.925Z,15.70
2023-06-08T01:13:12.788Z,15.70
2023-06-08T01:15:52.262Z,15.80
2023-06-08T01:18:24.901Z,15.80
2023-06-08T01:21:12.334Z,15.80
2023-06-08T01:24:03.609Z,15.80
2023-06-08T01:26:34.929Z,15.80
2023-06-08T01:29:07.294Z,15.70
2023-06-08T01:31:37.415Z,15.70
2023-06-08T01:34:08.557Z,15.70
2023-06-08T01:36:43.477Z,15.60
2023-06-08T01:39:23.769Z,15.60
2023-06-08T01:41:58.499Z,15.60
2023-06-08T01:44:30.304Z,15.50
2023-06-08T01:47:03.670Z,15.50
2023-06-08T01:49:36.072Z,15.50
2023-06-08T01:52:08.258Z,15.50
2023-06-08T01:54:43.944Z,15.40
2023-06-08T01:57:14.408Z,15.40
2023-06-08T01:59:44.492Z,15.30
2023-06-08T02:02:14.605Z,15.30
2023-06-08T02:04:44.752Z,15.20
2023-06-08T02:07:14.851Z,15.20
2023-06-08T02:09:48.823Z,15.20
2023-06-08T02:12:18.894Z,15.10
2023-06-08T02:14:49.451Z,15.10
2023-06-08T02:17:28.104Z,15.00
2023-06-08T02:20:01.825Z,15.10
2023-06-08T02:25:05.241Z,15.10
2023-06-08T02:30:11.598Z,19.00
2023-06-08T02:32:43.597Z,14.80
2023-06-08T02:35:14.184Z,15.00
2023-06-08T02:37:47.437Z,15.20
2023-06-08T02:40:20.514Z,15.10
2023-06-08T02:45:24.151Z,15.00
2023-06-08T02:47:54.484Z,14.90
2023-06-08T02:52:55.018Z,14.90
2023-06-08T02:55:29.667Z,14.90
2023-06-08T02:57:59.719Z,15.10
2023-06-08T03:03:24.431Z,15.00
2023-06-08T03:06:00.500Z,14.90
2023-06-08T03:08:37.931Z,15.00
2023-06-08T03:11:11.872Z,14.60
2023-06-08T03:16:13.740Z,14.80
2023-06-08T03:18:45.731Z,14.90
2023-06-08T03:21:19.879Z,14.50
2023-06-08T03:26:27.673Z,14.70
2023-06-08T03:28:59.444Z,14.60
2023-06-08T03:36:35.379Z,14.70
2023-06-08T03:41:43.520Z,15.00
2023-06-08T03:44:15.161Z,14.80
2023-06-08T03:46:45.787Z,14.80
2023-06-08T03:49:15.897Z,14.80
2023-06-08T03:51:46.344Z,14.60
2023-06-08T03:54:16.549Z,14.60
2023-06-08T03:56:50.181Z,12.70
2023-06-08T03:59:20.346Z,14.50
2023-06-08T04:01:50.968Z,14.60
2023-06-08T04:04:21.858Z,14.80
2023-06-08T04:06:52.512Z,14.40
2023-06-08T04:09:22.734Z,14.90
2023-06-08T04:11:55.586Z,14.80
2023-06-08T04:14:27.073Z,14.70
2023-06-08T04:19:30.763Z,14.30
2023-06-08T04:22:02.174Z,14.50
2023-06-08T04:24:36.794Z,14.50
2023-06-08T04:27:11.450Z,14.90
2023-06-08T04:32:12.856Z,14.90
2023-06-08T04:34:43.118Z,15.20
2023-06-08T04:37:13.223Z,15.10
2023-06-08T04:39:46.549Z,15.10
2023-06-08T04:42:20.722Z,15.20
2023-06-08T04:49:53.620Z,15.10
2023-06-08T04:52:24.161Z,15.30
2023-06-08T04:57:28.134Z,15.70
2023-06-08T05:05:00.151Z,15.90
2023-06-08T05:10:02.396Z,15.80
2023-06-08T05:12:35.881Z,15.80
2023-06-08T05:15:06.706Z,15.90
2023-06-08T05:17:36.843Z,15.90
2023-06-08T05:20:08.610Z,15.90
2023-06-08T05:22:38.748Z,15.80
2023-06-08T05:25:10.213Z,16.00
2023-06-08T05:27:43.004Z,16.00
2023-06-08T05:30:13.776Z,15.80
2023-06-08T05:32:43.914Z,16.30
2023-06-08T05:37:44.460Z,16.60
2023-06-08T05:40:15.712Z,16.50
2023-06-08T05:42:48.444Z,16.30
2023-06-08T05:50:20.099Z,17.20
2023-06-08T05:52:50.201Z,17.30
2023-06-08T05:55:20.242Z,17.50
2023-06-08T05:57:52.838Z,17.20
2023-06-08T06:00:24.371Z,17.70
2023-06-08T06:02:54.474Z,18.00
2023-06-08T06:10:28.775Z,18.50
2023-06-08T06:13:03.697Z,18.40
2023-06-08T06:15:33.774Z,18.60
2023-06-08T06:20:34.536Z,18.80
2023-06-08T06:23:04.532Z,18.90
2023-06-08T06:25:39.587Z,19.00
2023-06-08T06:28:12.373Z,19.10
2023-06-08T06:30:42.622Z,19.10
2023-06-08T06:33:12.684Z,19.20
2023-06-08T06:35:43.493Z,19.10
2023-06-08T06:38:13.574Z,19.20
2023-06-08T06:40:43.730Z,19.30
2023-06-08T06:43:16.353Z,19.30
2023-06-08T06:45:55.130Z,19.20
2023-06-08T06:48:26.595Z,19.30
2023-06-08T06:55:59.571Z,20.20
2023-06-08T06:58:32.447Z,20.20
2023-06-08T07:01:02.982Z,20.40
2023-06-08T07:03:33.286Z,20.60
2023-06-08T07:08:37.251Z,20.80
2023-06-08T07:11:07.804Z,20.90
2023-06-08T07:13:40.412Z,21.00
2023-06-08T07:16:10.950Z,21.10
2023-06-08T07:18:41.154Z,21.20
2023-06-08T07:21:11.254Z,21.30
2023-06-08T07:26:32.812Z,21.50
2023-06-08T07:29:05.920Z,20.90
2023-06-08T07:36:39.166Z,21.50
2023-06-08T07:39:09.272Z,21.50
2023-06-08T07:41:39.344Z,21.70
2023-06-08T07:44:11.963Z,21.80
2023-06-08T07:46:42.092Z,22.10
2023-06-08T07:51:42.744Z,22.30
2023-06-08T07:54:13.687Z,22.10
2023-06-08T07:56:43.867Z,22.10
2023-06-08T07:59:16.703Z,22.50
2023-06-08T08:01:47.140Z,22.30
2023-06-08T08:04:17.342Z,22.50
2023-06-08T08:06:47.383Z,22.50
2023-06-08T08:09:17.421Z,22.50
2023-06-08T08:11:47.458Z,22.90
2023-06-08T08:14:20.062Z,22.90
2023-06-08T08:16:50.192Z,23.10
2023-06-08T08:19:20.257Z,23.30
2023-06-08T08:21:50.445Z,23.80
2023-06-08T08:29:23.784Z,24.60
2023-06-08T08:31:54.075Z,24.90
2023-06-08T08:36:55.299Z,25.30
2023-06-08T08:39:25.346Z,25.40
2023-06-08T08:41:59.273Z,25.70
2023-06-08T08:44:34.567Z,25.60
2023-06-08T08:47:07.272Z,25.60
2023-06-08T08:49:42.053Z,25.10
2023-06-08T08:52:12.715Z,25.10
2023-06-08T08:54:43.645Z,24.70
2023-06-08T08:57:14.016Z,24.30
2023-06-08T08:59:49.267Z,24.30
2023-06-08T09:02:19.587Z,23.90
2023-06-08T09:04:49.880Z,23.80
2023-06-08T09:07:22.939Z,24.60
2023-06-08T09:10:18.340Z,24.50
2023-06-08T09:12:50.325Z,24.90
2023-06-08T09:15:32.632Z,24.90
2023-06-08T09:18:04.583Z,25.70
2023-06-08T09:20:36.088Z,25.30
2023-06-08T09:27:07.698Z,26.60
2023-06-08T09:29:41.936Z,27.00
2023-06-08T09:32:17.703Z,26.70
2023-06-08T09:34:55.415Z,25.80
2023-06-08T09:37:31.199Z,25.20
2023-06-08T09:40:05.791Z,24.80
2023-06-08T09:42:47.558Z,24.70
2023-06-08T09:45:19.118Z,24.50
2023-06-08T09:47:52.039Z,24.70
2023-06-08T09:50:22.232Z,24.70
2023-06-08T09:52:53.431Z,24.30
2023-06-08T09:55:24.267Z,24.10
2023-06-08T09:57:58.747Z,24.00
2023-06-08T10:00:31.329Z,24.10
2023-06-08T10:03:18.364Z,24.40
2023-06-08T10:05:50.093Z,24.40
2023-06-08T10:08:25.549Z,24.80
2023-06-08T10:10:55.937Z,24.60
2023-06-08T10:13:27.034Z,25.20
2023-06-08T10:15:58.853Z,24.90
2023-06-08T10:18:33.338Z,24.80
2023-06-08T10:21:07.754Z,24.30
2023-06-08T10:23:38.696Z,25.00
2023-06-08T10:31:35.545Z,24.90
2023-06-08T10:34:12.085Z,24.70
2023-06-08T10:36:43.789Z,24.60
2023-06-08T10:39:15.841Z,24.50
2023-06-08T10:41:47.590Z,25.30
2023-06-08T10:44:42.020Z,26.30
2023-06-08T10:47:33.055Z,26.40
2023-06-08T10:50:25.767Z,27.70
2023-06-08T10:56:03.538Z,28.60
2023-06-08T10:58:56.879Z,28.70
2023-06-08T11:01:50.033Z,29.30
2023-06-08T11:04:47.464Z,29.40
2023-06-08T11:07:30.409Z,29.60
2023-06-08T11:12:34.442Z,29.70
2023-06-08T11:17:45.074Z,26.90
2023-06-08T11:20:18.443Z,26.60
2023-06-08T11:22:53.154Z,26.80
2023-06-08T11:25:26.349Z,27.00
2023-06-08T11:27:59.098Z,26.70
2023-06-08T11:30:32.665Z,26.50
2023-06-08T11:35:33.426Z,25.90
2023-06-08T11:38:07.503Z,25.80
2023-06-08T11:40:43.236Z,25.70
2023-06-08T11:43:15.070Z,25.30
2023-06-08T11:45:46.597Z,25.50
2023-06-08T11:48:17.626Z,26.00
2023-06-08T11:50:52.252Z,26.20
2023-06-08T11:53:26.826Z,26.20
2023-06-08T11:55:59.112Z,27.40
2023-06-08T11:58:31.119Z,27.40
2023-06-08T12:01:09.847Z,27.40
2023-06-08T12:03:47.853Z,26.90
2023-06-08T12:06:19.850Z,26.60
2023-06-08T12:08:53.259Z,26.40
2023-06-08T12:19:00.665Z,29.20
2023-06-08T12:24:04.599Z,29.40
2023-06-08T12:26:34.730Z,28.60
2023-06-08T12:29:11.022Z,27.90
2023-06-08T12:31:41.288Z,27.30
2023-06-08T12:39:15.655Z,26.60
2023-06-08T12:44:16.235Z,25.80
2023-06-08T12:51:48.456Z,25.60
2023-06-08T12:54:21.147Z,25.30
2023-06-08T12:56:51.312Z,25.20
2023-06-08T13:01:52.257Z,24.70
2023-06-08T13:06:52.952Z,24.40
2023-06-08T13:09:25.724Z,24.10
2023-06-08T13:24:31.466Z,23.20
2023-06-08T13:32:03.047Z,22.30
2023-06-08T13:34:33.201Z,22.70
2023-06-08T13:39:37.297Z,22.00
2023-06-08T13:42:08.095Z,21.80
2023-06-08T13:47:11.793Z,21.80
2023-06-08T13:49:43.161Z,21.30
2023-06-08T13:52:13.758Z,21.50
2023-06-08T13:54:46.979Z,20.80
2023-06-08T13:59:47.596Z,20.30
2023-06-08T14:04:48.248Z,19.70
2023-06-08T14:07:18.709Z,19.90
2023-06-08T14:09:51.643Z,19.70
2023-06-08T14:19:54.902Z,18.70
2023-06-08T14:24:57.984Z,19.00
2023-06-08T14:27:28.250Z,19.00
2023-06-08T14:29:58.382Z,19.10
2023-06-08T14:32:28.534Z,19.00
2023-06-08T14:34:58.642Z,19.00
2023-06-08T14:37:28.693Z,19.10
2023-06-08T14:40:02.823Z,19.00
2023-06-08T14:42:32.986Z,19.00
2023-06-08T14:45:03.080Z,19.00
2023-06-08T14:47:33.137Z,18.80
2023-06-08T14:50:03.312Z,18.60
2023-06-08T14:52:33.688Z,18.40
2023-06-08T14:55:06.940Z,18.20
2023-06-08T14:57:37.248Z,18.10
2023-06-08T15:00:08.865Z,17.70
2023-06-08T15:02:39.224Z,17.50
2023-06-08T15:05:10.804Z,17.30
2023-06-08T15:07:40.970Z,17.00
2023-06-08T15:10:14.372Z,16.80
2023-06-08T15:12:44.407Z,16.70
2023-06-08T15:15:15.051Z,16.60
2023-06-08T15:17:45.250Z,16.50
2023-06-08T15:20:16.904Z,16.40
2023-06-08T15:22:47.159Z,16.40
2023-06-08T15:25:20.236Z,16.40
2023-06-08T15:27:50.312Z,16.50
2023-06-08T15:30:20.596Z,16.50
2023-06-08T15:32:50.747Z,16.60
2023-06-08T15:35:20.952Z,16.50
2023-06-08T15:37:51.050Z,16.50
2023-06-08T15:40:24.064Z,16.40
2023-06-08T15:42:54.209Z,16.50
2023-06-08T15:45:24.407Z,16.40
2023-06-08T15:47:54.560Z,16.30
2023-06-08T15:50:24.998Z,16.90
2023-06-08T15:52:55.215Z,16.20
2023-06-08T15:55:27.990Z,16.20
2023-06-08T15:57:58.226Z,16.10
2023-06-08T16:00:28.525Z,16.10
2023-06-08T16:02:58.744Z,16.20
2023-06-08T16:05:28.850Z,16.10
2023-06-08T16:07:59.396Z,16.10
2023-06-08T16:10:32.160Z,16.20
2023-06-08T16:13:02.374Z,16.20
2023-06-08T16:15:32.475Z,16.30
2023-06-08T16:18:02.646Z,16.40
2023-06-08T16:20:32.800Z,16.40
2023-06-08T16:23:02.910Z,16.50
2023-06-08T16:25:35.558Z,17.40
2023-06-08T16:28:05.755Z,16.60
2023-06-08T16:30:36.118Z,16.60
2023-06-08T16:33:07.095Z,16.60
2023-06-08T16:35:37.244Z,16.60
2023-06-08T16:38:07.470Z,16.70
2023-06-08T16:40:40.749Z,16.70
2023-06-08T16:43:12.174Z,16.90
2023-06-08T16:45:42.432Z,16.70
2023-06-08T16:48:12.658Z,16.80
2023-06-08T16:50:43.071Z,16.80
2023-06-08T16:53:13.165Z,17.00
2023-06-08T16:55:45.879Z,16.80
2023-06-08T16:58:16.093Z,16.90
2023-06-08T17:00:46.192Z,16.90
2023-06-08T17:03:16.639Z,17.20
2023-06-08T17:05:48.189Z,17.00
2023-06-08T17:08:18.474Z,17.10
2023-06-08T17:10:51.164Z,17.10
2023-06-08T17:13:21.238Z,16.80
2023-06-08T17:15:51.421Z,17.10
2023-06-08T17:18:21.827Z,17.20
2023-06-08T17:20:51.989Z,17.30
2023-06-08T17:23:22.143Z,17.40
2023-06-08T17:25:54.851Z,18.30
2023-06-08T17:28:24.984Z,17.30
2023-06-08T17:30:55.035Z,17.30
2023-06-08T17:33:25.362Z,17.00
2023-06-08T17:35:55.665Z,17.20
2023-06-08T17:38:27.111Z,17.20
2023-06-08T17:40:59.822Z,17.20
2023-06-08T17:43:29.848Z,17.20
2023-06-08T17:46:00.021Z,17.20
2023-06-08T17:48:30.057Z,17.10
2023-06-08T17:51:00.147Z,17.10
2023-06-08T17:53:30.244Z,17.10
2023-06-08T17:56:02.933Z,17.10
2023-06-08T17:58:33.028Z,17.10
2023-06-08T18:01:03.159Z,17.10
2023-06-08T18:03:33.269Z,17.10
2023-06-08T18:06:15.772Z,17.10
2023-06-08T18:08:53.806Z,17.10
2023-06-08T18:11:27.715Z,17.00
2023-06-08T18:13:57.945Z,17.00
2023-06-08T18:16:28.772Z,17.00
2023-06-08T18:18:59.138Z,17.00
2023-06-08T18:21:29.362Z,17.00
2023-06-08T18:23:59.608Z,17.00
2023-06-08T18:26:32.448Z,16.90
2023-06-08T18:29:02.709Z,17.00
2023-06-08T18:31:32.968Z,17.00
2023-06-08T18:34:03.117Z,17.10
2023-06-08T18:36:33.189Z,17.00
2023-06-08T18:39:03.217Z,17.00
2023-06-08T18:41:36.754Z,17.10
2023-06-08T18:44:07.654Z,17.10
2023-06-08T18:46:37.848Z,17.00
2023-06-08T18:49:08.741Z,17.00
2023-06-08T18:51:38.755Z,16.90
2023-06-08T18:54:08.929Z,16.90
2023-06-08T18:56:44.560Z,16.80
2023-06-08T18:59:14.778Z,16.80
2023-06-08T19:01:44.955Z,16.80
2023-06-08T19:04:15.111Z,16.70
2023-06-08T19:06:45.958Z,16.60
2023-06-08T19:09:25.558Z,16.50
2023-06-08T19:11:58.675Z,16.40
2023-06-08T19:14:30.028Z,16.40
2023-06-08T19:17:00.263Z,16.20
2023-06-08T19:19:30.539Z,16.20
2023-06-08T19:22:00.634Z,16.20
2023-06-08T19:24:31.325Z,16.20
2023-06-08T19:27:03.978Z,16.10
2023-06-08T19:29:34.408Z,16.00
2023-06-08T19:32:04.554Z,15.90
2023-06-08T19:34:36.001Z,15.80
2023-06-08T19:37:06.278Z,15.70
2023-06-08T19:39:36.406Z,15.60
2023-06-08T19:42:09.890Z,15.60
2023-06-08T19:44:41.076Z,15.50
2023-06-08T19:47:11.421Z,15.50
2023-06-08T19:49:41.706Z,15.40
2023-06-08T19:52:11.989Z,15.40
2023-06-08T19:54:42.092Z,15.40
2023-06-08T19:57:14.944Z,15.40
2023-06-08T19:59:45.204Z,15.40
2023-06-08T20:02:15.316Z,15.40
2023-06-08T20:04:45.606Z,15.40
2023-06-08T20:07:16.779Z,15.40
2023-06-08T20:09:47.137Z,15.40
2023-06-08T20:12:19.843Z,15.30
2023-06-08T20:14:50.316Z,15.30
2023-06-08T20:17:20.593Z,15.20
2023-06-08T20:19:53.683Z,15.10
2023-06-08T20:22:23.782Z,15.10
2023-06-08T20:27:27.275Z,15.10
2023-06-08T20:32:28.238Z,15.30
2023-06-08T20:34:58.398Z,14.90
2023-06-08T20:37:29.871Z,15.20
2023-06-08T20:39:59.993Z,15.10
2023-06-08T20:42:32.861Z,14.90
2023-06-08T20:45:03.289Z,15.10
2023-06-08T20:47:34.367Z,15.20
2023-06-08T20:50:04.830Z,14.40
2023-06-08T20:55:05.697Z,14.50
2023-06-08T20:57:38.539Z,14.50
2023-06-08T21:00:11.878Z,14.90
2023-06-08T21:02:47.503Z,14.80
2023-06-08T21:05:18.875Z,14.70
2023-06-08T21:10:19.968Z,14.60
2023-06-08T21:12:52.797Z,14.70
2023-06-08T21:15:22.977Z,14.20
2023-06-08T21:25:25.384Z,14.50
2023-06-08T21:27:58.424Z,14.70
2023-06-08T21:33:01.889Z,14.40
2023-06-08T21:38:02.443Z,14.20
2023-06-08T21:40:32.599Z,15.70
2023-06-08T21:43:05.351Z,14.40
2023-06-08T21:45:35.471Z,14.30
2023-06-08T21:48:05.609Z,13.90
2023-06-08T21:55:41.019Z,13.80
2023-06-08T21:58:13.658Z,14.30
2023-06-08T22:00:43.906Z,13.90
2023-06-08T22:03:14.718Z,14.00
2023-06-08T22:10:46.894Z,13.70
2023-06-08T22:13:19.527Z,14.10
2023-06-08T22:15:49.671Z,14.20
2023-06-08T22:18:19.675Z,13.40
2023-06-08T22:20:50.000Z,14.00
2023-06-08T22:23:20.185Z,13.90
2023-06-08T22:28:26.035Z,13.90
2023-06-08T22:30:56.373Z,13.50
2023-06-08T22:35:58.165Z,13.60
2023-06-08T22:38:28.210Z,13.70
2023-06-08T22:40:58.312Z,13.50
2023-06-08T22:43:30.957Z,13.70
2023-06-08T22:46:01.188Z,13.30
2023-06-08T22:48:31.852Z,13.50
2023-06-08T22:51:02.049Z,13.70
2023-06-08T22:53:35.167Z,13.40
2023-06-08T22:56:05.363Z,13.60
2023-06-08T22:58:38.100Z,13.20
2023-06-08T23:01:08.306Z,12.90
2023-06-08T23:08:39.227Z,13.50
2023-06-08T23:11:10.173Z,13.00
2023-06-08T23:13:42.941Z,13.00
2023-06-08T23:18:43.428Z,12.60
2023-06-08T23:21:14.446Z,13.00
2023-06-08T23:23:44.575Z,13.00
2023-06-08T23:26:14.787Z,12.30
2023-06-08T23:28:47.507Z,13.10
2023-06-08T23:31:17.794Z,12.20
2023-06-08T23:33:47.887Z,12.40
2023-06-08T23:36:20.158Z,12.60
2023-06-08T23:38:51.946Z,12.60
2023-06-08T23:41:22.509Z,12.40
2023-06-08T23:43:55.127Z,12.40
2023-06-08T23:46:25.533Z,12.80
2023-06-08T23:48:55.621Z,12.50
2023-06-08T23:51:25.658Z,12.60
2023-06-08T23:53:55.775Z,12.50
2023-06-08T23:56:26.984Z,12.40
2023-06-08T23:58:59.854Z,12.60
